Terminal Aerodrome Forecast
Issued by NWS Albuquerque, NM

Home | Current Version | Previous Version | Text Only | Print | Product List | Glossary On
Versions: 1 2 3 4 5 6 7 8 9 10 11 12 13
000
FTUS45 KABQ 262334
TAFABQ
TAF
KABQ 262334Z 2700/2724 10012G20KT P6SM SCT250
     FM270300 11006KT P6SM SCT120
     FM271200 01005KT P6SM SCT120
     FM271800 20006KT P6SM SCT250=

USA.gov is the U.S. government's official web portal to all federal, state and local government web resources and services.